Time;durP1;ratioP1;P1;durP2;ratioP2;P2;SDS_P1;SDS_P2;PMS_P1;PMS_P2;Temp;Humidity;BMP_temperature;BMP_pressure;BME280_temperature;BME280_humidity;BME280_pressure;Samples;Min_cycle;Max_cycle;Signal;HPM_P1;HPM_P2
2022/03/21 00:01:56;;;;;;;1.25;1.20;;;10.40;69.70;;;;;;4990670;28;20026;-64
2022/03/21 00:04:23;;;;;;;1.48;1.08;;;10.50;69.40;;;;;;4989771;28;20034;-65
2022/03/21 00:06:50;;;;;;;0.77;0.57;;;10.50;69.00;;;;;;4990884;28;20039;-64
2022/03/21 00:09:16;;;;;;;2.53;1.25;;;10.50;69.10;;;;;;4989766;28;20690;-65
2022/03/21 00:11:42;;;;;;;1.65;1.10;;;10.60;68.90;;;;;;4989653;28;20042;-64
2022/03/21 00:14:11;;;;;;;1.38;0.88;;;10.60;68.80;;;;;;4989544;28;20034;-65
2022/03/21 00:16:39;;;;;;;0.30;0.30;;;10.60;68.60;;;;;;5002954;28;20057;-64
2022/03/21 00:19:05;;;;;;;1.00;0.98;;;10.70;68.50;;;;;;5025869;28;20065;-65
2022/03/21 00:21:32;;;;;;;0.85;0.85;;;10.70;68.50;;;;;;5025181;28;20057;-64
2022/03/21 00:23:58;;;;;;;0.75;0.75;;;10.60;68.50;;;;;;5025500;28;20030;-65
2022/03/21 00:26:23;;;;;;;3.20;1.55;;;10.70;68.70;;;;;;5013698;28;20096;-64
2022/03/21 00:28:49;;;;;;;0.60;0.60;;;10.60;68.90;;;;;;5012957;28;20033;-64
2022/03/21 00:31:16;;;;;;;1.05;0.85;;;10.50;69.00;;;;;;5014161;28;20034;-64
2022/03/21 00:33:42;;;;;;;0.95;0.85;;;10.50;69.40;;;;;;5013632;28;20030;-64
2022/03/21 00:36:08;;;;;;;0.40;0.40;;;10.40;69.80;;;;;;5029019;28;20065;-64
2022/03/21 00:38:37;;;;;;;1.10;1.08;;;10.30;70.20;;;;;;5014180;28;20100;-65
2022/03/21 00:41:05;;;;;;;1.13;1.10;;;10.20;70.00;;;;;;5013881;28;20060;-64
2022/03/21 00:43:30;;;;;;;0.10;0.10;;;10.30;70.10;;;;;;5028830;28;20087;-64
2022/03/21 00:45:57;;;;;;;1.23;1.00;;;10.30;70.30;;;;;;5013686;28;20029;-64
2022/03/21 00:48:25;;;;;;;0.65;0.65;;;10.20;70.70;;;;;;5013568;28;20037;-64
2022/03/21 00:50:53;;;;;;;0.90;0.82;;;10.10;71.00;;;;;;5028497;28;20054;-64
2022/03/21 00:53:20;;;;;;;1.65;0.98;;;10.10;70.50;;;;;;5013514;28;20073;-64
2022/03/21 00:55:47;;;;;;;5.50;2.80;;;10.00;71.60;;;;;;5013839;28;20036;-64
2022/03/21 00:58:12;;;;;;;2.00;1.20;;;9.80;72.80;;;;;;5013168;28;20088;-64
2022/03/21 01:00:38;;;;;;;2.78;2.35;;;9.70;72.30;;;;;;5028848;28;20535;-65
2022/03/21 01:03:05;;;;;;;1.67;1.58;;;9.80;71.70;;;;;;5013082;28;20037;-64
2022/03/21 01:05:31;;;;;;;0.93;0.85;;;9.70;71.90;;;;;;5028390;28;20485;-65
2022/03/21 01:07:58;;;;;;;2.00;0.82;;;9.70;72.10;;;;;;5013737;28;20032;-65
2022/03/21 01:10:26;;;;;;;0.47;0.47;;;9.70;72.10;;;;;;5012212;28;20414;-62
2022/03/21 01:12:53;;;;;;;1.60;1.50;;;9.80;71.40;;;;;;5028133;28;20037;-65
2022/03/21 01:15:22;;;;;;;1.90;1.75;;;9.70;72.10;;;;;;5011756;28;20461;-64
2022/03/21 01:17:49;;;;;;;0.68;0.68;;;9.50;73.70;;;;;;5008602;28;20054;-64
2022/03/21 01:20:17;;;;;;;2.30;1.17;;;9.30;74.20;;;;;;5008826;28;20030;-64
2022/03/21 01:22:43;;;;;;;3.78;1.75;;;9.40;73.50;;;;;;4992999;28;20042;-65
2022/03/21 01:25:10;;;;;;;1.90;1.10;;;9.30;73.80;;;;;;4993338;28;20470;-65
2022/03/21 01:27:37;;;;;;;1.38;1.27;;;9.30;73.00;;;;;;4993388;28;20068;-65
2022/03/21 01:30:05;;;;;;;2.22;1.55;;;9.30;72.90;;;;;;5008676;28;20410;-65
2022/03/21 01:32:34;;;;;;;0.15;0.15;;;9.20;72.70;;;;;;4993224;28;20439;-65
2022/03/21 01:35:00;;;;;;;9.52;4.15;;;9.30;73.00;;;;;;4991570;28;20038;-64
2022/03/21 01:37:26;;;;;;;0.00;0.00;;;9.30;72.90;;;;;;5007979;28;20731;-65
2022/03/21 01:39:52;;;;;;;0.98;0.98;;;9.30;72.30;;;;;;4992006;28;20109;-64
2022/03/21 01:42:18;;;;;;;0.63;0.63;;;9.40;72.00;;;;;;5007704;28;20034;-65
2022/03/21 01:44:43;;;;;;;0.90;0.82;;;9.40;71.90;;;;;;5007849;28;20058;-65
2022/03/21 01:47:09;;;;;;;0.80;0.80;;;9.40;72.70;;;;;;4993057;28;20033;-63
2022/03/21 01:49:35;;;;;;;1.17;1.13;;;9.30;73.00;;;;;;5008188;28;20096;-63
2022/03/21 01:52:01;;;;;;;0.40;0.40;;;9.30;73.50;;;;;;4992690;28;20489;-63
2022/03/21 01:57:12;;;;;;;1.15;1.15;;;9.10;74.30;;;;;;5005568;28;20037;-63
2022/03/21 01:59:39;;;;;;;0.32;0.32;;;9.10;74.10;;;;;;4991408;28;20390;-63
2022/03/21 02:02:06;;;;;;;1.02;1.02;;;9.00;73.70;;;;;;5007327;28;20057;-63
2022/03/21 02:04:33;;;;;;;1.40;1.33;;;9.00;73.90;;;;;;4992449;28;20114;-63
2022/03/21 02:06:59;;;;;;;0.32;0.32;;;9.00;73.90;;;;;;4992594;28;20033;-63
2022/03/21 02:09:26;;;;;;;0.25;0.25;;;9.00;73.80;;;;;;4992764;28;20022;-63
2022/03/21 02:11:53;;;;;;;1.05;1.00;;;9.00;73.70;;;;;;5007348;28;20038;-62
2022/03/21 02:14:19;;;;;;;0.45;0.45;;;9.00;73.50;;;;;;4991260;28;20037;-63
2022/03/21 02:16:44;;;;;;;0.75;0.75;;;9.10;73.50;;;;;;5005799;28;20022;-63
2022/03/21 02:19:16;;;;;;;0.75;0.63;;;9.10;73.50;;;;;;5012132;28;20037;-63
2022/03/21 02:22:09;;;;;;;0.82;0.82;;;9.20;73.30;;;;;;5011996;28;20072;-63
2022/03/21 02:25:21;;;;;;;0.20;0.20;;;9.20;73.20;;;;;;5025842;28;20398;-62
2022/03/21 02:27:50;;;;;;;1.20;1.10;;;9.20;73.50;;;;;;5011766;28;20033;-63
2022/03/21 02:30:16;;;;;;;1.23;0.65;;;9.30;73.70;;;;;;5027169;28;20080;-62
2022/03/21 02:32:44;;;;;;;0.20;0.20;;;9.30;74.00;;;;;;5010436;28;20033;-63
2022/03/21 02:35:10;;;;;;;1.38;1.27;;;9.30;73.60;;;;;;5026895;28;20079;-62
2022/03/21 02:37:37;;;;;;;3.60;1.95;;;9.30;73.20;;;;;;5027003;28;20042;-63
2022/03/21 02:40:04;;;;;;;1.85;1.75;;;9.30;73.60;;;;;;5011800;28;20457;-62
2022/03/21 02:42:30;;;;;;;1.23;1.10;;;9.30;73.30;;;;;;5026503;28;20042;-62
2022/03/21 02:44:56;;;;;;;0.13;0.13;;;9.40;73.40;;;;;;5026441;28;20034;-62
2022/03/21 02:47:21;;;;;;;0.70;0.70;;;9.40;73.90;;;;;;5009562;28;20030;-63
2022/03/21 02:49:50;;;;;;;1.80;1.35;;;9.30;74.70;;;;;;5026528;28;20360;-63
2022/03/21 02:52:17;;;;;;;0.85;0.82;;;9.40;74.00;;;;;;5026338;28;20113;-63
2022/03/21 02:54:43;;;;;;;0.47;0.47;;;9.50;72.80;;;;;;5026682;28;20030;-63
2022/03/21 02:57:09;;;;;;;1.58;1.48;;;9.50;74.00;;;;;;5011353;28;20045;-63
2022/03/21 02:59:34;;;;;;;0.65;0.65;;;9.50;73.00;;;;;;5011306;28;20120;-63
2022/03/21 03:02:00;;;;;;;2.08;1.85;;;9.50;73.10;;;;;;5011004;28;20022;-63
2022/03/21 03:04:27;;;;;;;1.30;1.25;;;9.50;73.70;;;;;;5009816;28;20481;-63
2022/03/21 03:06:53;;;;;;;0.98;0.98;;;9.60;73.70;;;;;;5009998;28;20496;-63
2022/03/21 03:09:20;;;;;;;6.72;1.48;;;9.50;74.30;;;;;;5026470;28;20046;-63
2022/03/21 03:11:46;;;;;;;0.73;0.73;;;9.50;75.40;;;;;;5026140;28;20033;-63
2022/03/21 03:14:12;;;;;;;1.00;1.00;;;9.30;74.00;;;;;;5011161;28;20096;-63
2022/03/21 03:16:38;;;;;;;2.45;1.52;;;9.30;75.40;;;;;;5013505;28;20509;-63
2022/03/21 03:19:04;;;;;;;0.70;0.70;;;8.90;78.00;;;;;;4991346;28;20046;-63
2022/03/21 03:21:46;;;;;;;2.03;1.30;;;8.40;82.30;;;;;;5006601;28;20038;-63
2022/03/21 03:24:12;;;;;;;0.88;0.88;;;8.40;80.10;;;;;;5006010;28;20026;-64
2022/03/21 03:26:39;;;;;;;2.63;2.42;;;8.40;81.80;;;;;;4991312;28;20050;-63
2022/03/21 03:29:05;;;;;;;7.32;1.23;;;8.30;82.40;;;;;;5006225;28;20029;-63
2022/03/21 03:31:31;;;;;;;0.82;0.57;;;8.10;83.00;;;;;;5006462;28;20062;-63
2022/03/21 03:33:58;;;;;;;2.15;1.95;;;8.20;82.80;;;;;;4991199;28;20037;-63
2022/03/21 03:36:24;;;;;;;0.47;0.47;;;7.90;85.30;;;;;;4991265;28;20498;-63
2022/03/21 03:38:51;;;;;;;1.42;1.33;;;7.80;85.10;;;;;;5006061;28;20507;-63
2022/03/21 03:41:17;;;;;;;0.47;0.47;;;7.90;85.40;;;;;;5006153;28;20037;-63
2022/03/21 03:43:47;;;;;;;0.20;0.20;;;7.90;86.70;;;;;;4990763;28;20039;-63
2022/03/21 03:46:13;;;;;;;3.95;2.50;;;8.00;85.90;;;;;;4990886;28;20074;-63
2022/03/21 03:48:41;;;;;;;0.70;0.70;;;7.90;85.90;;;;;;4991225;28;20126;-63
2022/03/21 03:51:07;;;;;;;1.42;1.27;;;8.00;85.70;;;;;;4990959;28;20389;-63
2022/03/21 03:53:33;;;;;;;8.48;1.75;;;7.80;86.30;;;;;;4991079;28;20038;-63
2022/03/21 03:55:59;;;;;;;1.65;1.55;;;7.60;86.80;;;;;;5005825;28;20038;-63
2022/03/21 03:58:25;;;;;;;7.57;1.98;;;7.70;86.90;;;;;;4991263;28;20038;-63
2022/03/21 04:00:51;;;;;;;1.48;1.38;;;7.80;86.90;;;;;;5010131;28;20033;-63
2022/03/21 04:06:02;;;;;;;3.03;2.08;;;7.60;86.90;;;;;;4994641;28;20041;-63
2022/03/21 04:08:28;;;;;;;8.98;1.85;;;7.60;87.90;;;;;;4993860;28;20069;-63
2022/03/21 04:10:54;;;;;;;2.28;2.17;;;7.60;87.40;;;;;;4994694;28;20113;-63
2022/03/21 04:13:20;;;;;;;2.22;2.03;;;7.60;87.70;;;;;;5010060;28;20034;-63
2022/03/21 04:15:46;;;;;;;1.00;0.90;;;7.50;88.10;;;;;;4999721;28;20076;-63
2022/03/21 04:18:11;;;;;;;0.30;0.30;;;7.50;88.30;;;;;;5014169;28;20034;-63
2022/03/21 04:20:39;;;;;;;0.95;0.90;;;7.40;88.30;;;;;;5014029;28;20118;-63
2022/03/21 04:23:05;;;;;;;1.15;1.05;;;7.40;88.60;;;;;;5014349;28;20384;-63
2022/03/21 04:25:32;;;;;;;0.20;0.20;;;7.30;89.40;;;;;;5013976;28;20036;-63
2022/03/21 04:27:57;;;;;;;0.38;0.38;;;7.20;89.60;;;;;;5029471;28;20545;-63
2022/03/21 04:30:23;;;;;;;2.00;1.13;;;7.10;90.30;;;;;;5029160;28;20049;-63
2022/03/21 04:32:50;;;;;;;0.68;0.68;;;7.10;90.40;;;;;;5014161;28;20759;-63
2022/03/21 04:35:16;;;;;;;2.17;2.00;;;7.10;90.60;;;;;;5013820;28;20473;-63
2022/03/21 04:37:42;;;;;;;0.38;0.38;;;7.00;90.60;;;;;;5028999;28;20053;-63
2022/03/21 04:40:09;;;;;;;0.80;0.80;;;7.00;90.80;;;;;;5029101;28;20072;-63
2022/03/21 04:42:37;;;;;;;0.82;0.82;;;6.90;90.80;;;;;;5013462;28;20121;-62
2022/03/21 04:45:04;;;;;;;3.13;2.55;;;6.90;90.90;;;;;;4976849;28;20599;-63
2022/03/21 04:47:31;;;;;;;2.70;1.90;;;6.80;91.30;;;;;;5012744;28;20056;-63
2022/03/21 04:49:58;;;;;;;0.88;0.88;;;6.80;91.30;;;;;;5023746;28;20022;-62
2022/03/21 04:52:24;;;;;;;2.70;0.57;;;6.80;91.30;;;;;;5019491;28;20034;-63
2022/03/21 04:54:49;;;;;;;0.20;0.20;;;6.70;91.30;;;;;;5022863;28;20038;-63
2022/03/21 04:57:21;;;;;;;0.40;0.40;;;6.70;91.60;;;;;;5027362;28;20088;-63
2022/03/21 04:59:46;;;;;;;;;;;6.60;91.90;;;;;;5013845;28;20060;-63
2022/03/21 05:02:12;;;;;;;1.98;1.38;;;6.60;92.00;;;;;;5013017;28;20008;-64
2022/03/21 05:04:38;;;;;;;0.90;0.90;;;6.50;92.10;;;;;;5028346;28;20025;-63
2022/03/21 05:07:05;;;;;;;0.25;0.25;;;6.50;92.30;;;;;;5012823;28;20038;-65
2022/03/21 05:09:31;;;;;;;1.85;1.38;;;6.40;92.50;;;;;;4993179;28;20022;-62
2022/03/21 05:11:56;;;;;;;3.50;1.23;;;6.40;92.50;;;;;;4995233;28;20436;-62
2022/03/21 05:14:22;;;;;;;1.85;1.65;;;6.30;92.80;;;;;;4993633;28;20038;-62
2022/03/21 05:16:49;;;;;;;2.53;2.33;;;6.30;93.10;;;;;;5022204;28;20030;-63
2022/03/21 05:19:16;;;;;;;0.22;0.22;;;6.30;93.20;;;;;;5013176;28;20477;-62
2022/03/21 05:21:42;;;;;;;0.85;0.85;;;6.30;93.30;;;;;;5012648;28;20581;-62
2022/03/21 05:32:23;;;;;;;1.13;1.02;;;6.20;93.60;;;;;;5004203;28;20092;-62
2022/03/21 05:37:33;;;;;;;0.40;0.40;;;6.10;94.60;;;;;;5025661;28;20437;-61
2022/03/21 05:42:43;;;;;;;2.75;0.95;;;6.10;94.50;;;;;;5009494;28;20109;-63
2022/03/21 05:45:09;;;;;;;3.75;2.65;;;6.10;94.20;;;;;;5011840;28;20501;-63
2022/03/21 05:48:50;;;;;;;3.83;3.50;;;6.10;94.50;;;;;;5012628;28;20026;-63
2022/03/21 05:50:21;;;;;;;2.03;0.82;;;6.20;93.90;;;;;;5012227;28;20030;-63
2022/03/21 05:52:46;;;;;;;0.30;0.30;;;6.10;93.60;;;;;;5012217;28;20034;-63
2022/03/21 05:55:12;;;;;;;1.08;1.00;;;6.10;93.70;;;;;;5010602;28;20044;-63
2022/03/21 05:57:38;;;;;;;0.57;0.57;;;6.10;93.70;;;;;;5012216;28;20065;-63
2022/03/21 06:00:20;;;;;;;1.05;1.00;;;6.10;93.80;;;;;;5012229;28;20065;-63
2022/03/21 06:02:46;;;;;;;0.20;0.20;;;6.10;93.90;;;;;;5011909;28;20034;-63
2022/03/21 06:05:12;;;;;;;0.10;0.10;;;6.20;94.20;;;;;;5011347;28;20080;-63
2022/03/21 06:07:38;;;;;;;0.38;0.38;;;6.20;94.70;;;;;;5011902;28;20036;-63
2022/03/21 06:10:04;;;;;;;2.38;1.38;;;6.20;95.10;;;;;;5011998;28;20029;-63
2022/03/21 06:12:31;;;;;;;0.10;0.10;;;6.20;95.10;;;;;;4965665;28;20061;-60
2022/03/21 06:14:57;;;;;;;2.95;2.55;;;6.20;95.30;;;;;;5001251;28;20030;-63
2022/03/21 06:17:23;;;;;;;0.95;0.95;;;6.20;95.30;;;;;;5001734;28;20022;-61
2022/03/21 06:19:48;;;;;;;1.17;1.15;;;6.20;95.20;;;;;;5002199;28;20084;-62
2022/03/21 06:22:14;;;;;;;0.25;0.25;;;6.30;95.10;;;;;;4998963;28;20486;-61
2022/03/21 06:24:40;;;;;;;1.88;1.25;;;6.30;95.30;;;;;;5017819;28;20537;-62
2022/03/21 06:27:06;;;;;;;0.30;0.30;;;6.40;95.20;;;;;;5013149;28;20085;-63
2022/03/21 06:29:32;;;;;;;2.38;1.20;;;6.40;95.30;;;;;;5022360;28;20040;-62
2022/03/21 06:31:58;;;;;;;0.13;0.13;;;6.50;95.50;;;;;;5011425;28;20018;-63
2022/03/21 06:34:23;;;;;;;2.42;2.22;;;6.60;95.30;;;;;;5011373;28;20092;-63
2022/03/21 06:36:49;;;;;;;1.67;1.35;;;6.60;95.30;;;;;;5010197;28;20096;-62
2022/03/21 06:39:15;;;;;;;0.93;0.88;;;6.70;95.10;;;;;;5011543;28;20034;-63
2022/03/21 06:41:42;;;;;;;0.57;0.57;;;6.80;95.00;;;;;;5011432;28;20189;-63
2022/03/21 06:44:08;;;;;;;2.53;2.22;;;6.80;94.40;;;;;;5011287;28;20026;-63
2022/03/21 06:46:34;;;;;;;4.07;2.58;;;6.90;94.20;;;;;;5011654;28;20490;-63
2022/03/21 06:49:00;;;;;;;1.50;1.38;;;7.10;93.50;;;;;;5026512;28;20112;-62
2022/03/21 06:51:27;;;;;;;5.57;2.50;;;7.20;92.90;;;;;;5009440;28;20184;-62
2022/03/21 06:53:53;;;;;;;0.25;0.25;;;7.30;92.50;;;;;;5011356;28;20030;-62
2022/03/21 06:56:19;;;;;;;0.10;0.10;;;7.40;92.20;;;;;;5011050;28;20034;-62
2022/03/21 06:58:45;;;;;;;0.15;0.15;;;7.50;92.30;;;;;;5007698;28;20042;-62
2022/03/21 07:01:10;;;;;;;3.20;1.95;;;7.50;92.30;;;;;;5010306;28;20038;-63
2022/03/21 07:03:36;;;;;;;2.67;2.28;;;7.60;92.10;;;;;;5009884;28;20022;-64
2022/03/21 07:06:02;;;;;;;2.13;1.33;;;7.70;91.90;;;;;;5011097;28;20095;-64
2022/03/21 07:08:27;;;;;;;2.63;1.60;;;7.80;92.10;;;;;;5010968;28;20022;-64
2022/03/21 07:10:53;;;;;;;1.58;1.48;;;7.90;91.70;;;;;;5011249;28;20109;-63
2022/03/21 07:13:19;;;;;;;2.78;2.58;;;8.00;91.40;;;;;;5010645;28;20045;-64
2022/03/21 07:15:45;;;;;;;0.75;0.75;;;8.10;91.40;;;;;;5010994;28;20026;-64
2022/03/21 07:18:10;;;;;;;1.83;1.30;;;8.10;90.80;;;;;;5010790;28;20113;-61
2022/03/21 07:20:37;;;;;;;0.75;0.70;;;8.30;90.60;;;;;;5010802;28;20034;-62
2022/03/21 07:23:03;;;;;;;0.90;0.90;;;8.30;90.40;;;;;;5010544;28;20033;-64
2022/03/21 07:25:31;;;;;;;13.35;3.28;;;8.40;90.10;;;;;;4995460;28;20164;-62
2022/03/21 07:27:57;;;;;;;0.52;0.52;;;8.50;90.10;;;;;;4996245;28;20108;-62
2022/03/21 07:30:22;;;;;;;0.32;0.32;;;8.50;90.00;;;;;;5010915;28;20104;-62
2022/03/21 07:32:51;;;;;;;8.10;3.42;;;8.60;89.40;;;;;;5010180;28;20153;-62
2022/03/21 07:35:17;;;;;;;0.85;0.85;;;8.60;89.40;;;;;;5009700;28;20543;-62
2022/03/21 07:37:46;;;;;;;1.30;1.20;;;8.60;87.70;;;;;;5010542;28;20030;-62
2022/03/21 07:40:14;;;;;;;0.73;0.73;;;8.80;87.80;;;;;;5010588;28;20091;-62
2022/03/21 07:42:42;;;;;;;2.38;1.10;;;8.80;85.20;;;;;;5010082;28;20033;-62
2022/03/21 07:47:55;;;;;;;2.17;1.25;;;9.00;84.40;;;;;;5007658;28;20037;-62
2022/03/21 07:50:25;;;;;;;1.48;1.38;;;9.00;84.10;;;;;;5010458;28;20033;-62
2022/03/21 07:52:54;;;;;;;0.82;0.82;;;9.00;84.00;;;;;;5009229;28;20029;-62
2022/03/21 07:55:20;;;;;;;1.75;1.27;;;8.90;84.40;;;;;;5009695;28;20048;-62
2022/03/21 07:57:46;;;;;;;0.35;0.35;;;9.10;84.60;;;;;;5010180;28;20022;-63
2022/03/21 08:00:14;;;;;;;4.75;3.50;;;9.20;83.90;;;;;;5010322;28;20049;-62
2022/03/21 08:02:44;;;;;;;1.77;1.63;;;9.30;82.70;;;;;;5009080;28;20045;-62
2022/03/21 08:05:13;;;;;;;0.65;0.65;;;9.40;82.60;;;;;;5009248;28;20022;-62
2022/03/21 08:07:39;;;;;;;5.18;1.98;;;9.40;82.70;;;;;;5010318;28;20114;-63
2022/03/21 08:10:06;;;;;;;0.43;0.43;;;9.60;82.40;;;;;;5009058;28;20069;-63
2022/03/21 08:12:32;;;;;;;1.30;1.20;;;9.70;82.40;;;;;;5008346;28;20132;-62
2022/03/21 08:14:59;;;;;;;0.43;0.43;;;9.70;82.10;;;;;;5010289;28;20406;-62
2022/03/21 08:17:26;;;;;;;0.98;0.98;;;9.80;82.10;;;;;;5009234;28;20588;-63
2022/03/21 08:19:56;;;;;;;1.33;1.25;;;9.90;81.50;;;;;;5000450;28;20030;-63
2022/03/21 08:22:21;;;;;;;0.73;0.73;;;9.90;81.60;;;;;;5008548;28;20050;-63
2022/03/21 08:24:47;;;;;;;1.35;1.25;;;9.80;80.50;;;;;;5003925;28;20053;-63
2022/03/21 08:27:14;;;;;;;0.55;0.55;;;10.00;80.60;;;;;;5008560;28;20037;-63
2022/03/21 08:29:40;;;;;;;2.55;2.35;;;10.10;79.70;;;;;;4999399;28;20116;-63
2022/03/21 08:32:07;;;;;;;0.47;0.47;;;10.10;79.00;;;;;;5007916;28;20065;-63
2022/03/21 08:34:33;;;;;;;2.40;1.63;;;10.20;79.40;;;;;;5007139;28;20036;-63
2022/03/21 08:36:59;;;;;;;1.85;1.38;;;10.10;79.00;;;;;;5009942;28;20117;-63
2022/03/21 08:39:27;;;;;;;1.38;1.15;;;10.20;78.80;;;;;;5006173;28;20120;-63
2022/03/21 08:41:53;;;;;;;3.03;1.55;;;10.20;79.20;;;;;;5008806;28;20124;-63
2022/03/21 08:44:20;;;;;;;0.50;0.50;;;10.50;78.60;;;;;;5008817;28;20445;-63
2022/03/21 08:46:47;;;;;;;2.00;1.60;;;10.60;78.70;;;;;;5012324;28;20108;-63
2022/03/21 08:49:26;;;;;;;0.60;0.60;;;10.60;79.10;;;;;;5004689;28;20038;-63
2022/03/21 08:51:54;;;;;;;7.72;1.75;;;10.80;79.40;;;;;;5011427;28;20508;-63
2022/03/21 08:54:19;;;;;;;1.95;1.85;;;10.80;78.60;;;;;;5011121;28;20040;-63
2022/03/21 08:56:47;;;;;;;2.83;2.45;;;10.80;78.60;;;;;;5013672;28;20030;-63
2022/03/21 08:59:13;;;;;;;3.20;0.90;;;11.00;77.90;;;;;;5011606;28;20033;-64
2022/03/21 09:01:38;;;;;;;1.45;1.35;;;11.10;77.30;;;;;;5004113;28;20033;-63
2022/03/21 09:10:29;;;;;;;1.13;1.05;;;11.20;77.90;;;;;;5004948;23;20417;-63
2022/03/21 09:12:55;;;;;;;0.75;0.75;;;11.30;77.80;;;;;;4949430;28;20062;-64
2022/03/21 09:15:22;;;;;;;1.58;1.50;;;11.50;79.60;;;;;;4965621;28;20074;-63
2022/03/21 09:17:47;;;;;;;0.63;0.63;;;11.60;78.50;;;;;;4958381;28;20090;-63
2022/03/21 09:20:14;;;;;;;0.32;0.32;;;11.80;78.10;;;;;;4935681;29;20508;-64
2022/03/21 09:22:40;;;;;;;1.33;1.23;;;11.90;77.20;;;;;;4936422;29;20035;-64
2022/03/21 09:25:06;;;;;;;3.38;2.53;;;11.80;78.40;;;;;;4954441;29;20415;-63
2022/03/21 09:27:32;;;;;;;5.53;2.80;;;12.00;77.60;;;;;;4954590;29;20060;-63
2022/03/21 09:29:58;;;;;;;1.52;1.42;;;12.00;76.10;;;;;;4953897;29;20390;-64
2022/03/21 09:32:25;;;;;;;1.20;0.68;;;12.20;77.40;;;;;;4954471;29;20042;-64
2022/03/21 09:34:51;;;;;;;1.77;1.67;;;12.40;75.80;;;;;;4921473;29;20536;-64
2022/03/21 09:37:17;;;;;;;0.60;0.55;;;12.40;75.30;;;;;;4921271;29;20129;-64
2022/03/21 09:39:45;;;;;;;0.90;0.73;;;12.70;76.40;;;;;;4955290;28;20059;-65
2022/03/21 09:42:15;;;;;;;2.15;1.90;;;12.80;75.30;;;;;;4956449;28;20033;-65
2022/03/21 09:44:41;;;;;;;3.00;2.35;;;13.00;73.20;;;;;;4973317;28;20038;-64
2022/03/21 09:49:58;;;;;;;1.85;1.75;;;12.90;73.50;;;;;;4972256;28;20026;-65
2022/03/21 09:52:25;;;;;;;1.92;1.80;;;13.20;72.00;;;;;;4972124;28;20038;-64
2022/03/21 09:54:51;;;;;;;0.50;0.50;;;13.10;72.40;;;;;;4956237;28;20578;-66
2022/03/21 09:57:18;;;;;;;0.13;0.13;;;13.30;72.70;;;;;;4961994;28;20114;-65
2022/03/21 09:59:44;;;;;;;1.88;1.75;;;13.50;71.80;;;;;;4951845;29;20123;-63
2022/03/21 10:02:18;;;;;;;1.75;1.35;;;13.70;72.80;;;;;;4954004;29;20035;-64
2022/03/21 10:04:46;;;;;;;0.40;0.40;;;13.60;70.60;;;;;;4953711;29;20035;-65
2022/03/21 10:07:12;;;;;;;1.95;1.35;;;13.90;71.60;;;;;;4932916;29;20107;-64
2022/03/21 10:09:38;;;;;;;1.60;1.33;;;14.20;71.00;;;;;;4934157;29;20471;-63
2022/03/21 10:12:10;;;;;;;0.52;0.52;;;14.20;72.40;;;;;;4952113;28;20105;-63
2022/03/21 10:14:37;;;;;;;0.52;0.52;;;14.30;70.20;;;;;;4962803;28;20070;-64
2022/03/21 10:17:09;;;;;;;0.10;0.10;;;14.50;70.90;;;;;;4952516;29;20031;-63
2022/03/21 10:19:44;;;;;;;6.10;3.78;;;14.30;71.20;;;;;;4953394;29;20035;-62
2022/03/21 10:22:13;;;;;;;6.18;3.05;;;14.50;70.90;;;;;;4953592;29;20039;-63
2022/03/21 10:24:43;;;;;;;2.75;1.83;;;14.70;69.90;;;;;;4953257;28;20101;-64
2022/03/21 10:27:37;;;;;;;2.13;1.50;;;14.90;69.10;;;;;;4953269;29;20034;-64
2022/03/21 10:30:15;;;;;;;4.70;2.10;;;14.80;70.60;;;;;;4952729;28;20553;-64
2022/03/21 10:32:50;;;;;;;1.58;1.17;;;14.70;70.20;;;;;;4952028;29;20034;-64
2022/03/21 10:35:31;;;;;;;0.73;0.73;;;14.90;70.00;;;;;;4951989;29;20055;-64
2022/03/21 10:38:03;;;;;;;0.68;0.68;;;15.00;70.80;;;;;;4952181;29;20093;-64
2022/03/21 10:40:32;;;;;;;1.15;0.70;;;15.30;69.60;;;;;;4952867;29;20054;-64
2022/03/21 10:43:05;;;;;;;0.70;0.45;;;15.20;70.40;;;;;;4967898;28;20498;-64
2022/03/21 10:45:44;;;;;;;7.45;3.58;;;15.50;71.10;;;;;;4971225;28;20085;-64
2022/03/21 10:48:19;;;;;;;1.10;0.73;;;15.70;69.50;;;;;;4954625;28;20105;-65
2022/03/21 10:50:51;;;;;;;5.15;2.05;;;15.90;69.50;;;;;;4965126;28;20027;-65
2022/03/21 10:53:22;;;;;;;2.25;1.77;;;16.20;67.60;;;;;;4951756;29;20038;-65
2022/03/21 10:56:07;;;;;;;4.70;1.33;;;16.20;70.00;;;;;;4951479;29;20043;-65
2022/03/21 10:58:48;;;;;;;0.30;0.30;;;16.40;68.40;;;;;;4935189;29;20047;-65
2022/03/21 11:01:23;;;;;;;1.48;1.05;;;16.30;71.40;;;;;;4951627;29;20191;-65
2022/03/21 11:03:52;;;;;;;1.38;0.90;;;16.70;67.30;;;;;;4952752;29;20039;-65
2022/03/21 11:06:19;;;;;;;1.63;1.33;;;17.00;69.00;;;;;;4950992;29;20023;-65
2022/03/21 11:08:50;;;;;;;0.65;0.65;;;16.80;68.30;;;;;;4952022;28;20031;-64
2022/03/21 11:11:15;;;;;;;1.08;0.98;;;16.70;67.80;;;;;;4935714;28;20033;-64
2022/03/21 11:13:42;;;;;;;2.00;1.83;;;16.70;68.00;;;;;;4952526;29;20043;-65
2022/03/21 11:16:09;;;;;;;8.10;1.13;;;16.90;68.10;;;;;;4931734;29;20032;-66
2022/03/21 11:18:35;;;;;;;1.55;1.45;;;16.80;68.00;;;;;;4915891;29;20095;-66
2022/03/21 11:21:02;;;;;;;2.50;1.20;;;16.50;67.90;;;;;;4926384;28;20097;-65
2022/03/21 11:23:30;;;;;;;1.13;0.80;;;16.50;68.00;;;;;;4953091;28;20066;-65
2022/03/21 11:26:37;;;;;;;13.23;1.33;;;16.70;68.40;;;;;;4952788;29;20030;-65
2022/03/21 11:29:35;;;;;;;3.30;1.95;;;16.80;68.10;;;;;;4922185;29;20045;-65
2022/03/21 11:33:12;;;;;;;2.22;1.70;;;17.50;67.80;;;;;;4935580;29;20027;-65
2022/03/21 11:35:49;;;;;;;8.35;2.75;;;18.20;66.00;;;;;;4855627;29;20045;-65
2022/03/21 11:38:28;;;;;;;2.80;2.30;;;17.70;65.50;;;;;;4839822;29;20084;-65
2022/03/21 11:41:18;;;;;;;1.65;1.55;;;16.90;68.20;;;;;;4914683;29;20044;-65
2022/03/21 11:43:46;;;;;;;0.50;0.35;;;17.30;67.00;;;;;;4931643;29;20028;-65
2022/03/21 11:46:33;;;;;;;2.78;2.15;;;17.50;69.00;;;;;;4931985;29;20036;-65
2022/03/21 11:49:02;;;;;;;6.40;1.42;;;17.90;67.00;;;;;;4932492;29;20039;-65
2022/03/21 11:51:58;;;;;;;2.00;1.55;;;18.70;65.90;;;;;;4931500;29;20031;-65
2022/03/21 11:54:34;;;;;;;2.67;1.50;;;19.30;65.00;;;;;;4938340;28;20589;-65
2022/03/21 11:57:28;;;;;;;1.33;0.90;;;19.10;65.10;;;;;;4971649;28;20034;-65
2022/03/21 11:59:57;;;;;;;1.98;1.35;;;19.10;65.20;;;;;;4971172;28;20652;-65
2022/03/21 12:02:25;;;;;;;0.75;0.63;;;19.50;64.40;;;;;;4971366;28;20375;-65
2022/03/21 12:05:03;;;;;;;5.18;2.33;;;18.30;65.20;;;;;;4970836;28;20062;-65
2022/03/21 12:07:31;;;;;;;1.23;1.13;;;18.40;67.40;;;;;;4969587;28;20426;-65
2022/03/21 12:09:58;;;;;;;0.93;0.85;;;18.40;65.10;;;;;;4969505;28;20545;-65
2022/03/21 12:12:39;;;;;;;1.83;0.95;;;18.50;65.10;;;;;;4959476;28;20027;-65
2022/03/21 12:15:31;;;;;;;;;;;18.90;63.50;;;;;;4952001;29;20039;-65
2022/03/21 12:17:57;;;;;;;2.83;1.30;;;18.70;65.30;;;;;;4936499;29;20077;-65
2022/03/21 12:20:23;;;;;;;1.05;0.85;;;18.70;62.80;;;;;;4953247;28;20042;-65
2022/03/21 12:23:00;;;;;;;0.50;0.50;;;18.30;64.00;;;;;;4945303;28;20027;-65
2022/03/21 12:25:28;;;;;;;1.70;1.23;;;18.30;64.60;;;;;;4974108;28;20030;-65
2022/03/21 12:27:59;;;;;;;0.28;0.28;;;18.90;63.20;;;;;;4952521;29;20035;-65
2022/03/21 12:30:29;;;;;;;;;;;19.30;62.60;;;;;;4958498;28;20054;-65
2022/03/21 12:33:23;;;;;;;2.95;0.95;;;19.40;63.70;;;;;;4955975;28;19922;-65
2022/03/21 12:35:49;;;;;;;1.67;1.27;;;19.70;62.50;;;;;;4965112;28;20039;-65
2022/03/21 12:38:22;;;;;;;1.52;1.42;;;19.10;64.20;;;;;;4974075;28;20048;-66
2022/03/21 12:40:52;;;;;;;0.88;0.80;;;20.00;62.40;;;;;;4965000;28;20177;-65
2022/03/21 12:43:27;;;;;;;1.33;1.23;;;19.50;64.20;;;;;;4955490;28;20427;-65
2022/03/21 12:46:07;;;;;;;1.02;0.93;;;19.10;63.00;;;;;;4943310;29;20026;-65
2022/03/21 12:48:45;;;;;;;1.10;1.03;;;19.80;63.60;;;;;;4957256;28;20415;-65
2022/03/21 12:51:15;;;;;;;4.95;2.40;;;19.40;63.30;;;;;;4955435;28;20283;-65
2022/03/21 12:53:50;;;;;;;3.10;1.73;;;20.30;63.10;;;;;;4957381;28;20105;-65
2022/03/21 12:56:18;;;;;;;0.65;0.52;;;20.10;63.80;;;;;;4957379;28;20027;-65
2022/03/21 12:58:47;;;;;;;2.28;1.77;;;20.20;62.90;;;;;;4956784;28;20035;-65
2022/03/21 13:01:15;;;;;;;0.50;0.50;;;19.80;62.80;;;;;;4958175;28;20168;-65
2022/03/21 13:03:41;;;;;;;0.80;0.77;;;19.10;62.60;;;;;;4960451;28;20039;-65
2022/03/21 13:11:44;;;;;;;0.50;0.50;;;20.20;63.10;;;;;;4958312;28;20042;-65
2022/03/21 13:14:19;;;;;;;0.43;0.30;;;20.00;61.90;;;;;;4958218;28;20035;-65
2022/03/21 13:16:58;;;;;;;1.50;1.40;;;19.80;62.90;;;;;;4969562;28;20118;-65
2022/03/21 13:19:29;;;;;;;3.03;1.10;;;20.50;62.50;;;;;;4967167;28;20555;-65
2022/03/21 13:22:04;;;;;;;1.15;1.05;;;20.30;62.50;;;;;;4967689;28;20061;-65
2022/03/21 13:24:43;;;;;;;1.38;1.00;;;19.00;62.70;;;;;;4966965;28;20126;-66
2022/03/21 13:27:12;;;;;;;1.45;1.00;;;19.00;63.40;;;;;;4935259;29;20107;-63
2022/03/21 13:29:43;;;;;;;2.22;1.35;;;20.20;62.60;;;;;;4959802;28;20490;-65
2022/03/21 13:32:09;;;;;;;0.30;0.30;;;19.70;64.00;;;;;;4934356;29;20515;-64
2022/03/21 13:34:38;;;;;;;0.68;0.68;;;19.70;62.90;;;;;;4952506;28;20073;-63
2022/03/21 13:37:19;;;;;;;2.85;2.45;;;19.40;63.30;;;;;;4967046;28;20513;-66
2022/03/21 13:40:11;;;;;;;4.32;1.45;;;19.90;62.80;;;;;;4963364;28;20086;-65